Time;durP1;ratioP1;P1;durP2;ratioP2;P2;SDS_P1;SDS_P2;PMS_P1;PMS_P2;Temp;Humidity;BMP_temperature;BMP_pressure;BME280_temperature;BME280_humidity;BME280_pressure;Samples;Min_cycle;Max_cycle;Signal;HPM_P1;HPM_P2
2021/12/09 00:01:00;;;;;;;134.20;54.77;;;;;;;;;;722923;189;920362;-66
2021/12/09 00:03:16;;;;;;;138.67;56.90;;;;;;;;;;724372;192;918734;-67
2021/12/09 00:05:44;;;;;;;147.00;60.70;;;;;;;;;;721382;189;914759;-66
2021/12/09 00:08:08;;;;;;;154.03;65.87;;;;;;;;;;726453;189;919444;-66
2021/12/09 00:10:34;;;;;;;138.23;56.23;;;;;;;;;;725422;189;913497;-65
2021/12/09 00:13:00;;;;;;;141.17;62.43;;;;;;;;;;729135;189;916280;-66
2021/12/09 00:15:25;;;;;;;150.93;59.73;;;;;;;;;;719673;189;915723;-66
2021/12/09 00:17:51;;;;;;;138.20;57.60;;;;;;;;;;732967;186;918151;-66
2021/12/09 00:20:18;;;;;;;141.33;62.37;;;;;;;;;;730665;190;915315;-66
2021/12/09 00:22:43;;;;;;;135.40;57.13;;;;;;;;;;730708;188;916658;-66
2021/12/09 00:25:09;;;;;;;154.73;62.30;;;;;;;;;;731629;189;915599;-66
2021/12/09 00:27:35;;;;;;;137.17;60.47;;;;;;;;;;725144;192;916447;-67
2021/12/09 00:30:01;;;;;;;146.17;64.23;;;;;;;;;;732960;189;1018234;-67
2021/12/09 00:32:26;;;;;;;145.50;60.00;;;;;;;;;;733126;189;916791;-66
2021/12/09 00:34:53;;;;;;;153.60;59.73;;;;;;;;;;716775;189;916431;-66
2021/12/09 00:37:25;;;;;;;126.97;62.80;;;;;;;;;;735774;189;916221;-66
2021/12/09 00:39:44;;;;;;;145.07;59.13;;;;;;;;;;705217;193;919768;-67
2021/12/09 00:42:10;;;;;;;138.20;60.07;;;;;;;;;;729006;189;919899;-66
2021/12/09 00:44:36;;;;;;;135.80;60.37;;;;;;;;;;738714;189;918717;-66
2021/12/09 00:47:01;;;;;;;145.45;60.78;;;;;;;;;;719604;189;922118;-65
2021/12/09 00:49:30;;;;;;;157.70;59.03;;;;;;;;;;725179;189;1021680;-66
2021/12/09 00:51:53;;;;;;;161.70;60.37;;;;;;;;;;721615;189;918768;-66
2021/12/09 00:54:19;;;;;;;154.40;60.67;;;;;;;;;;719424;189;919935;-66
2021/12/09 00:56:45;;;;;;;129.77;58.50;;;;;;;;;;718982;189;922356;-66
2021/12/09 00:59:11;;;;;;;162.07;62.17;;;;;;;;;;724226;193;919276;-67
2021/12/09 01:01:37;;;;;;;145.37;60.20;;;;;;;;;;730927;189;920089;-66
2021/12/09 01:04:02;;;;;;;150.97;63.40;;;;;;;;;;720096;189;1019294;-67
2021/12/09 01:06:28;;;;;;;133.40;57.00;;;;;;;;;;722032;189;916273;-66
2021/12/09 01:08:54;;;;;;;136.83;62.07;;;;;;;;;;725906;189;915049;-66
2021/12/09 01:11:20;;;;;;;158.10;69.20;;;;;;;;;;731349;186;1017048;-66
2021/12/09 01:13:46;;;;;;;142.70;61.78;;;;;;;;;;727647;189;918701;-66
2021/12/09 01:16:12;;;;;;;134.97;62.60;;;;;;;;;;732523;189;918012;-66
2021/12/09 01:18:38;;;;;;;148.67;62.47;;;;;;;;;;721545;189;919921;-66
2021/12/09 01:21:04;;;;;;;154.60;63.53;;;;;;;;;;731333;189;919058;-66
2021/12/09 01:23:30;;;;;;;151.50;62.70;;;;;;;;;;722455;193;1022985;-66
2021/12/09 01:26:01;;;;;;;115.03;55.77;;;;;;;;;;722094;190;1020880;-66
2021/12/09 01:28:26;;;;;;;135.67;60.50;;;;;;;;;;719715;190;921780;-66
2021/12/09 01:30:49;;;;;;;148.00;65.22;;;;;;;;;;727246;190;937227;-66
2021/12/09 01:33:13;;;;;;;144.23;56.80;;;;;;;;;;739391;189;1022453;-66
2021/12/09 01:35:40;;;;;;;144.10;61.60;;;;;;;;;;732661;189;920275;-67
2021/12/09 01:38:12;;;;;;;137.65;60.83;;;;;;;;;;725648;189;1022211;-67
2021/12/09 01:40:34;;;;;;;138.87;58.13;;;;;;;;;;731000;189;922036;-66
2021/12/09 01:42:59;;;;;;;145.45;62.08;;;;;;;;;;717995;190;921817;-66
2021/12/09 01:45:25;;;;;;;139.83;59.13;;;;;;;;;;717551;190;919782;-66
2021/12/09 01:47:52;;;;;;;147.40;61.50;;;;;;;;;;728685;190;919900;-65
2021/12/09 01:50:18;;;;;;;142.37;62.97;;;;;;;;;;733404;189;919088;-66
2021/12/09 01:52:43;;;;;;;141.67;63.17;;;;;;;;;;734469;189;919567;-66
2021/12/09 01:55:09;;;;;;;145.12;61.35;;;;;;;;;;716560;192;1018382;-67
2021/12/09 01:57:35;;;;;;;138.57;59.10;;;;;;;;;;724338;190;916193;-66
2021/12/09 02:00:01;;;;;;;136.87;61.50;;;;;;;;;;732974;189;916707;-66
2021/12/09 02:02:27;;;;;;;127.70;57.67;;;;;;;;;;728300;188;919731;-66
2021/12/09 02:04:53;;;;;;;160.90;65.17;;;;;;;;;;729434;189;920032;-66
2021/12/09 02:07:19;;;;;;;145.03;60.30;;;;;;;;;;717165;189;921912;-67
2021/12/09 02:09:45;;;;;;;133.17;58.40;;;;;;;;;;724142;190;919702;-66
2021/12/09 02:12:11;;;;;;;153.63;60.60;;;;;;;;;;730989;189;918893;-66
2021/12/09 02:14:37;;;;;;;132.47;60.00;;;;;;;;;;722007;189;919689;-65
2021/12/09 02:17:02;;;;;;;142.43;63.90;;;;;;;;;;723204;189;919117;-66
2021/12/09 02:19:28;;;;;;;124.43;57.73;;;;;;;;;;733305;189;919170;-66
2021/12/09 02:21:54;;;;;;;138.37;64.70;;;;;;;;;;733404;186;920232;-67
2021/12/09 02:24:20;;;;;;;130.67;54.43;;;;;;;;;;720202;189;918066;-66
2021/12/09 02:26:45;;;;;;;127.67;58.77;;;;;;;;;;729965;189;919424;-66
2021/12/09 02:29:11;;;;;;;138.10;56.57;;;;;;;;;;722872;189;919650;-65
2021/12/09 02:31:37;;;;;;;137.53;61.33;;;;;;;;;;726321;189;936086;-66
2021/12/09 02:34:03;;;;;;;145.37;62.00;;;;;;;;;;718503;190;983050;-67
2021/12/09 02:36:30;;;;;;;133.93;59.33;;;;;;;;;;734313;189;920729;-66
2021/12/09 02:38:55;;;;;;;132.70;57.57;;;;;;;;;;725572;190;918840;-66
2021/12/09 02:41:21;;;;;;;130.03;57.10;;;;;;;;;;719821;190;918531;-66
2021/12/09 02:43:46;;;;;;;139.87;60.80;;;;;;;;;;719266;193;922254;-66
2021/12/09 02:46:12;;;;;;;136.10;60.30;;;;;;;;;;727644;189;920244;-66
2021/12/09 02:48:38;;;;;;;141.53;62.17;;;;;;;;;;706615;193;920786;-66
2021/12/09 02:51:04;;;;;;;127.43;58.40;;;;;;;;;;707522;194;919403;-66
2021/12/09 02:53:30;;;;;;;132.60;58.20;;;;;;;;;;713184;194;919537;-67
2021/12/09 02:55:56;;;;;;;132.70;56.47;;;;;;;;;;711581;193;919682;-66
2021/12/09 02:58:21;;;;;;;159.53;62.40;;;;;;;;;;733404;189;915429;-66
2021/12/09 03:00:49;;;;;;;135.37;56.40;;;;;;;;;;723537;190;916003;-66
2021/12/09 03:03:15;;;;;;;133.60;60.30;;;;;;;;;;726980;190;918959;-66
2021/12/09 03:05:42;;;;;;;127.57;56.17;;;;;;;;;;733882;189;920612;-66
2021/12/09 03:08:08;;;;;;;153.40;59.60;;;;;;;;;;728408;189;919231;-66
2021/12/09 03:10:34;;;;;;;140.63;60.07;;;;;;;;;;725027;189;1122924;-66
2021/12/09 03:13:00;;;;;;;135.27;61.30;;;;;;;;;;713044;193;918915;-66
2021/12/09 03:15:24;;;;;;;146.90;59.97;;;;;;;;;;704500;197;920620;-66
2021/12/09 03:17:50;;;;;;;137.83;58.97;;;;;;;;;;706887;197;918998;-66
2021/12/09 03:20:16;;;;;;;149.20;58.50;;;;;;;;;;724979;189;1021847;-66
2021/12/09 03:22:42;;;;;;;148.60;67.93;;;;;;;;;;724679;189;917200;-66
2021/12/09 03:25:08;;;;;;;195.40;89.27;;;;;;;;;;727127;189;920169;-66
2021/12/09 03:27:34;;;;;;;170.47;77.90;;;;;;;;;;725499;189;919075;-66
2021/12/09 03:29:59;;;;;;;163.63;68.53;;;;;;;;;;734179;189;919033;-66
2021/12/09 03:32:25;;;;;;;140.30;69.30;;;;;;;;;;720829;189;919482;-65
2021/12/09 03:34:51;;;;;;;156.90;78.23;;;;;;;;;;730556;189;919237;-66
2021/12/09 03:37:17;;;;;;;147.27;63.00;;;;;;;;;;726746;189;942497;-66
2021/12/09 03:39:43;;;;;;;132.20;63.87;;;;;;;;;;722218;189;926808;-66
2021/12/09 03:42:09;;;;;;;132.30;58.60;;;;;;;;;;726546;189;919632;-66
2021/12/09 03:44:35;;;;;;;144.97;57.33;;;;;;;;;;720422;189;917126;-66
2021/12/09 03:47:00;;;;;;;126.90;58.30;;;;;;;;;;728684;189;1047794;-65
2021/12/09 03:49:26;;;;;;;114.73;55.80;;;;;;;;;;724555;193;919344;-66
2021/12/09 03:51:52;;;;;;;151.60;62.45;;;;;;;;;;719173;190;919883;-66
2021/12/09 03:54:18;;;;;;;146.60;66.97;;;;;;;;;;725041;190;919626;-66
2021/12/09 03:56:44;;;;;;;141.30;62.97;;;;;;;;;;725754;189;918608;-67
2021/12/09 03:59:10;;;;;;;157.20;66.30;;;;;;;;;;719437;190;919198;-66
2021/12/09 04:01:35;;;;;;;158.37;61.93;;;;;;;;;;721188;189;943732;-66
2021/12/09 04:04:01;;;;;;;176.30;75.47;;;;;;;;;;716124;189;919491;-66
2021/12/09 04:06:29;;;;;;;141.30;65.47;;;;;;;;;;723722;189;919153;-66
2021/12/09 04:08:53;;;;;;;145.40;58.77;;;;;;;;;;726554;189;919835;-66
2021/12/09 04:11:19;;;;;;;144.00;62.00;;;;;;;;;;719793;189;1011171;-66
2021/12/09 04:13:45;;;;;;;155.20;67.03;;;;;;;;;;730967;189;965382;-65
2021/12/09 04:16:11;;;;;;;130.63;58.23;;;;;;;;;;722172;189;919479;-66
2021/12/09 04:18:38;;;;;;;145.65;59.00;;;;;;;;;;722295;189;922898;-66
2021/12/09 04:21:04;;;;;;;139.90;56.70;;;;;;;;;;727224;190;929554;-66
2021/12/09 04:23:30;;;;;;;140.40;59.50;;;;;;;;;;731957;189;1021963;-65
2021/12/09 04:25:56;;;;;;;150.60;62.13;;;;;;;;;;722784;189;919923;-66
2021/12/09 04:28:21;;;;;;;152.97;68.47;;;;;;;;;;728250;189;1022189;-65
2021/12/09 04:30:47;;;;;;;190.13;88.03;;;;;;;;;;732783;189;918295;-66
2021/12/09 04:33:13;;;;;;;173.93;86.80;;;;;;;;;;725756;189;919024;-66
2021/12/09 04:35:39;;;;;;;165.00;88.40;;;;;;;;;;726576;187;1020736;-65
2021/12/09 04:38:05;;;;;;;137.87;65.67;;;;;;;;;;736068;189;1022093;-64
2021/12/09 04:40:31;;;;;;;161.47;70.83;;;;;;;;;;724321;189;919299;-65
2021/12/09 04:42:57;;;;;;;170.33;73.70;;;;;;;;;;727559;189;886154;-66
2021/12/09 04:45:22;;;;;;;146.20;64.50;;;;;;;;;;731997;189;919432;-65
2021/12/09 04:47:48;;;;;;;120.30;51.60;;;;;;;;;;727776;189;919285;-64
2021/12/09 04:50:15;;;;;;;140.27;64.03;;;;;;;;;;726805;189;920164;-65
2021/12/09 04:52:40;;;;;;;154.50;64.23;;;;;;;;;;724553;189;922530;-66
2021/12/09 04:55:07;;;;;;;147.80;63.40;;;;;;;;;;736700;189;919254;-65
2021/12/09 04:57:33;;;;;;;134.00;58.87;;;;;;;;;;716737;193;918570;-65
2021/12/09 04:59:59;;;;;;;134.43;60.07;;;;;;;;;;728636;189;919959;-68
2021/12/09 05:02:34;;;;;;;180.13;68.97;;;;;;;;;;732217;189;918029;-64
2021/12/09 05:04:52;;;;;;;163.50;70.23;;;;;;;;;;721541;189;919790;-65
2021/12/09 05:07:18;;;;;;;241.27;104.67;;;;;;;;;;734088;189;630922;-65
2021/12/09 05:09:50;;;;;;;304.27;130.57;;;;;;;;;;735520;189;616675;-66
2021/12/09 05:12:11;;;;;;;291.83;135.73;;;;;;;;;;725201;189;815693;-66
2021/12/09 05:14:36;;;;;;;194.00;81.90;;;;;;;;;;722850;190;919470;-64
2021/12/09 05:17:03;;;;;;;242.40;110.60;;;;;;;;;;724523;189;918204;-64
2021/12/09 05:19:27;;;;;;;201.27;93.37;;;;;;;;;;731952;189;920130;-66
2021/12/09 05:21:54;;;;;;;173.23;77.63;;;;;;;;;;729131;189;920013;-66
2021/12/09 05:24:19;;;;;;;191.83;95.93;;;;;;;;;;725455;189;918939;-66
2021/12/09 05:26:49;;;;;;;241.60;110.30;;;;;;;;;;731053;189;636292;-66
2021/12/09 05:29:11;;;;;;;151.73;74.60;;;;;;;;;;730481;190;637608;-65
2021/12/09 05:34:09;;;;;;;134.80;64.03;;;;;;;;;;732498;189;633243;-66
2021/12/09 05:36:35;;;;;;;154.67;63.87;;;;;;;;;;737364;188;937288;-65
2021/12/09 05:39:01;;;;;;;168.00;74.80;;;;;;;;;;735218;189;916083;-65
2021/12/09 05:41:27;;;;;;;147.77;66.30;;;;;;;;;;721244;189;640372;-66
2021/12/09 05:43:52;;;;;;;146.27;66.13;;;;;;;;;;733443;189;623247;-65
2021/12/09 05:46:18;;;;;;;125.07;55.60;;;;;;;;;;725133;189;917849;-65
2021/12/09 05:48:44;;;;;;;139.93;57.63;;;;;;;;;;728454;189;918910;-65
2021/12/09 05:51:11;;;;;;;153.00;61.07;;;;;;;;;;735005;191;920286;-65
2021/12/09 05:53:36;;;;;;;143.37;62.55;;;;;;;;;;735501;189;918314;-65
2021/12/09 05:56:02;;;;;;;140.77;59.67;;;;;;;;;;731905;189;633928;-66
2021/12/09 05:58:28;;;;;;;131.40;57.87;;;;;;;;;;739778;189;619189;-63
2021/12/09 06:00:53;;;;;;;132.17;56.30;;;;;;;;;;729931;189;919222;-66
2021/12/09 06:03:19;;;;;;;124.53;54.50;;;;;;;;;;731341;189;919274;-65
2021/12/09 06:05:45;;;;;;;145.98;62.28;;;;;;;;;;725504;189;919501;-65
2021/12/09 06:08:11;;;;;;;126.80;60.53;;;;;;;;;;729145;189;919177;-65
2021/12/09 06:10:37;;;;;;;123.77;57.73;;;;;;;;;;724410;189;919536;-66
2021/12/09 06:13:03;;;;;;;137.27;56.83;;;;;;;;;;730964;190;918867;-65
2021/12/09 06:15:28;;;;;;;138.17;58.87;;;;;;;;;;731390;192;919859;-65
2021/12/09 06:17:54;;;;;;;145.07;56.57;;;;;;;;;;721116;190;1123998;-66
2021/12/09 06:20:20;;;;;;;137.20;54.53;;;;;;;;;;721092;190;920708;-66
2021/12/09 06:22:46;;;;;;;142.50;61.10;;;;;;;;;;737421;189;629285;-65
2021/12/09 06:25:17;;;;;;;129.17;56.80;;;;;;;;;;719140;193;918404;-66
2021/12/09 06:27:38;;;;;;;134.40;53.53;;;;;;;;;;724866;189;643425;-65
2021/12/09 06:30:04;;;;;;;133.67;57.67;;;;;;;;;;736915;189;632344;-65
2021/12/09 06:32:30;;;;;;;135.63;60.77;;;;;;;;;;726513;189;618229;-65
2021/12/09 06:34:55;;;;;;;118.57;54.47;;;;;;;;;;736369;189;919043;-66
2021/12/09 06:37:21;;;;;;;143.97;59.67;;;;;;;;;;718090;190;918926;-65
2021/12/09 06:39:47;;;;;;;154.10;58.30;;;;;;;;;;727015;189;919354;-66
2021/12/09 06:42:16;;;;;;;137.80;58.90;;;;;;;;;;724115;186;919154;-65
2021/12/09 06:44:39;;;;;;;123.53;59.63;;;;;;;;;;723716;189;919479;-65
2021/12/09 06:47:05;;;;;;;136.50;59.17;;;;;;;;;;729899;189;919611;-66
2021/12/09 06:49:30;;;;;;;144.93;62.03;;;;;;;;;;727482;189;919507;-65
2021/12/09 06:51:56;;;;;;;121.30;54.00;;;;;;;;;;724133;189;919299;-65
2021/12/09 06:54:22;;;;;;;135.47;59.37;;;;;;;;;;725131;189;919121;-64
2021/12/09 06:56:48;;;;;;;122.57;53.80;;;;;;;;;;732403;189;918549;-66
2021/12/09 06:59:14;;;;;;;132.97;57.80;;;;;;;;;;726192;189;1021877;-66
2021/12/09 07:01:40;;;;;;;135.97;55.30;;;;;;;;;;726306;189;919249;-66
2021/12/09 07:04:06;;;;;;;149.53;60.93;;;;;;;;;;730250;189;1021558;-66
2021/12/09 07:06:32;;;;;;;128.70;53.77;;;;;;;;;;725397;189;919597;-66
2021/12/09 07:09:00;;;;;;;132.70;57.27;;;;;;;;;;724701;189;918918;-66
2021/12/09 07:11:23;;;;;;;128.83;58.70;;;;;;;;;;732122;189;920836;-65
2021/12/09 07:13:49;;;;;;;143.33;62.33;;;;;;;;;;727901;189;918689;-65
2021/12/09 07:16:15;;;;;;;134.98;58.67;;;;;;;;;;727488;189;922928;-65
2021/12/09 07:18:41;;;;;;;129.90;54.77;;;;;;;;;;725952;189;919696;-64
2021/12/09 07:21:07;;;;;;;125.83;58.87;;;;;;;;;;736203;187;919218;-64
2021/12/09 07:23:33;;;;;;;138.03;57.17;;;;;;;;;;729546;189;919263;-64
2021/12/09 07:25:58;;;;;;;148.38;61.37;;;;;;;;;;726177;189;1020688;-65
2021/12/09 07:28:24;;;;;;;133.60;58.90;;;;;;;;;;722911;189;923195;-65
2021/12/09 07:30:50;;;;;;;130.43;55.40;;;;;;;;;;719066;190;920615;-64
2021/12/09 07:33:16;;;;;;;146.13;61.17;;;;;;;;;;727639;189;919461;-64
2021/12/09 07:35:43;;;;;;;145.07;60.23;;;;;;;;;;729500;189;918826;-64
2021/12/09 07:38:08;;;;;;;141.73;60.70;;;;;;;;;;725168;189;919476;-65
2021/12/09 07:40:34;;;;;;;132.73;56.57;;;;;;;;;;723978;189;924792;-65
2021/12/09 07:42:59;;;;;;;141.57;59.23;;;;;;;;;;731964;189;1021435;-64
2021/12/09 07:45:25;;;;;;;120.17;52.20;;;;;;;;;;721829;189;920945;-64
2021/12/09 07:47:51;;;;;;;148.53;68.93;;;;;;;;;;720933;190;919493;-65
2021/12/09 07:50:18;;;;;;;148.17;71.30;;;;;;;;;;722685;189;1611137;-65
2021/12/09 07:52:43;;;;;;;144.40;67.97;;;;;;;;;;736554;189;919522;-63
2021/12/09 07:55:09;;;;;;;159.75;70.07;;;;;;;;;;730342;189;921283;-65
2021/12/09 07:57:35;;;;;;;170.47;76.30;;;;;;;;;;732659;189;919802;-63
2021/12/09 08:00:01;;;;;;;139.20;61.97;;;;;;;;;;732804;189;919729;-64
2021/12/09 08:02:26;;;;;;;173.20;77.68;;;;;;;;;;718828;189;919678;-64
2021/12/09 08:04:52;;;;;;;165.17;72.07;;;;;;;;;;723917;189;919140;-64
2021/12/09 08:07:18;;;;;;;165.50;73.50;;;;;;;;;;728448;189;919469;-64
2021/12/09 08:09:44;;;;;;;136.82;64.10;;;;;;;;;;728112;190;1021922;-65
2021/12/09 08:12:10;;;;;;;164.13;68.40;;;;;;;;;;727639;189;919732;-66
2021/12/09 08:14:36;;;;;;;176.03;78.50;;;;;;;;;;724244;189;918877;-64
2021/12/09 08:19:33;;;;;;;171.82;72.12;;;;;;;;;;719707;192;919738;-68
2021/12/09 08:21:59;;;;;;;171.70;75.33;;;;;;;;;;733929;189;918403;-65
2021/12/09 08:24:25;;;;;;;166.57;72.90;;;;;;;;;;735410;189;919460;-65
2021/12/09 08:26:51;;;;;;;150.95;64.72;;;;;;;;;;724248;189;919688;-64
2021/12/09 08:29:16;;;;;;;162.33;72.60;;;;;;;;;;721490;189;1042532;-63
2021/12/09 08:31:42;;;;;;;159.40;75.20;;;;;;;;;;733632;189;919467;-64
2021/12/09 08:34:08;;;;;;;132.10;61.10;;;;;;;;;;723378;189;941902;-64
2021/12/09 08:36:34;;;;;;;168.17;77.23;;;;;;;;;;715258;193;919587;-64
2021/12/09 08:39:00;;;;;;;208.18;93.75;;;;;;;;;;706647;196;920008;-65
2021/12/09 08:41:26;;;;;;;169.23;73.57;;;;;;;;;;716018;194;919351;-64
2021/12/09 08:43:52;;;;;;;179.77;77.03;;;;;;;;;;698237;197;918777;-64
2021/12/09 08:46:18;;;;;;;198.27;82.23;;;;;;;;;;701694;197;944205;-64
2021/12/09 08:48:43;;;;;;;213.10;97.67;;;;;;;;;;711177;196;918768;-64
2021/12/09 08:51:09;;;;;;;176.93;78.67;;;;;;;;;;719439;191;919561;-64
2021/12/09 08:53:35;;;;;;;172.97;71.13;;;;;;;;;;729419;191;919994;-64
2021/12/09 08:56:02;;;;;;;175.07;78.43;;;;;;;;;;736764;189;919571;-63
2021/12/09 08:58:29;;;;;;;171.43;74.47;;;;;;;;;;727012;188;918407;-64
2021/12/09 09:00:56;;;;;;;186.43;77.13;;;;;;;;;;714683;193;1007604;-64
2021/12/09 09:03:19;;;;;;;199.23;81.07;;;;;;;;;;721777;189;922482;-64
2021/12/09 09:05:45;;;;;;;152.37;67.93;;;;;;;;;;729675;190;920101;-64
2021/12/09 09:08:11;;;;;;;161.10;68.50;;;;;;;;;;722151;190;936670;-64
2021/12/09 09:10:37;;;;;;;149.35;66.65;;;;;;;;;;728810;189;919544;-64
2021/12/09 09:13:03;;;;;;;195.50;82.97;;;;;;;;;;731461;189;919423;-62
2021/12/09 09:15:31;;;;;;;197.83;82.03;;;;;;;;;;721495;189;920229;-64
2021/12/09 09:17:55;;;;;;;226.37;98.13;;;;;;;;;;717820;189;919760;-64
2021/12/09 09:20:20;;;;;;;207.60;85.17;;;;;;;;;;729114;189;919430;-64
2021/12/09 09:22:46;;;;;;;199.60;93.80;;;;;;;;;;721468;189;919906;-65
2021/12/09 09:25:14;;;;;;;168.80;76.77;;;;;;;;;;720771;189;918610;-64
2021/12/09 09:27:38;;;;;;;176.57;75.20;;;;;;;;;;731697;189;919355;-64
2021/12/09 09:30:05;;;;;;;180.23;79.17;;;;;;;;;;730495;189;918448;-64
2021/12/09 09:32:30;;;;;;;166.63;72.47;;;;;;;;;;720380;189;919507;-64
2021/12/09 09:34:56;;;;;;;163.47;78.70;;;;;;;;;;726762;189;919187;-63
2021/12/09 09:37:22;;;;;;;171.73;79.73;;;;;;;;;;722730;189;915891;-64
2021/12/09 09:39:47;;;;;;;201.73;88.40;;;;;;;;;;724623;189;916729;-65
2021/12/09 09:44:49;;;;;;;204.93;89.53;;;;;;;;;;727860;189;917227;-64
2021/12/09 09:47:12;;;;;;;180.25;75.28;;;;;;;;;;734902;190;916316;-63
2021/12/09 09:49:38;;;;;;;168.37;74.82;;;;;;;;;;724782;189;916717;-63
2021/12/09 09:52:05;;;;;;;167.47;77.87;;;;;;;;;;719583;190;920664;-63
2021/12/09 09:54:30;;;;;;;171.50;71.57;;;;;;;;;;726909;189;920504;-64
2021/12/09 09:56:56;;;;;;;184.07;76.72;;;;;;;;;;729301;188;928891;-63
2021/12/09 09:59:22;;;;;;;157.33;69.00;;;;;;;;;;719272;190;919337;-63
2021/12/09 10:01:50;;;;;;;140.47;65.43;;;;;;;;;;720951;189;919352;-63
2021/12/09 10:04:20;;;;;;;185.57;78.50;;;;;;;;;;722787;189;918923;-64
2021/12/09 10:06:39;;;;;;;167.40;67.57;;;;;;;;;;720753;189;919818;-64
2021/12/09 10:09:05;;;;;;;182.13;85.80;;;;;;;;;;725776;189;919527;-63
2021/12/09 10:11:31;;;;;;;193.37;78.30;;;;;;;;;;727973;189;1036283;-63
2021/12/09 10:13:57;;;;;;;218.77;91.50;;;;;;;;;;722014;189;1020925;-63
2021/12/09 10:16:24;;;;;;;262.70;106.53;;;;;;;;;;716257;190;919649;-63
2021/12/09 10:18:49;;;;;;;489.27;236.03;;;;;;;;;;722389;190;945931;-62
2021/12/09 10:21:20;;;;;;;243.90;106.60;;;;;;;;;;730654;187;919499;-63
2021/12/09 10:23:48;;;;;;;220.37;93.07;;;;;;;;;;720209;189;920442;-63
2021/12/09 10:26:12;;;;;;;192.63;76.60;;;;;;;;;;724473;189;919359;-62
2021/12/09 10:28:40;;;;;;;205.33;85.80;;;;;;;;;;723311;189;918665;-63
2021/12/09 10:31:09;;;;;;;221.43;91.50;;;;;;;;;;725395;189;919261;-63
2021/12/09 10:33:34;;;;;;;217.83;99.80;;;;;;;;;;722364;189;919646;-63
2021/12/09 10:36:00;;;;;;;214.67;97.23;;;;;;;;;;729193;189;922035;-63
2021/12/09 10:38:26;;;;;;;166.83;77.70;;;;;;;;;;727717;189;920182;-63
2021/12/09 10:40:52;;;;;;;184.70;81.32;;;;;;;;;;726365;189;919007;-64
2021/12/09 10:43:18;;;;;;;186.63;83.03;;;;;;;;;;729867;189;919687;-63
2021/12/09 10:45:44;;;;;;;205.83;92.07;;;;;;;;;;725161;193;919729;-64
2021/12/09 10:48:31;;;;;;;178.10;75.70;;;;;;;;;;714500;193;994869;-64
2021/12/09 10:51:24;;;;;;;165.80;76.97;;;;;;;;;;725355;189;917731;-66
2021/12/09 10:53:46;;;;;;;193.43;79.83;;;;;;;;;;720581;189;919628;-65
2021/12/09 10:56:01;;;;;;;196.43;83.10;;;;;;;;;;724841;189;920417;-65
2021/12/09 10:58:26;;;;;;;195.50;82.70;;;;;;;;;;736637;190;851823;-66
2021/12/09 11:00:56;;;;;;;195.50;88.90;;;;;;;;;;726982;190;627181;-66
2021/12/09 11:03:22;;;;;;;174.60;74.77;;;;;;;;;;724352;190;625711;-66
2021/12/09 11:05:51;;;;;;;163.63;72.67;;;;;;;;;;736176;189;626705;-66
2021/12/09 11:08:17;;;;;;;175.75;70.55;;;;;;;;;;731734;189;919628;-67
2021/12/09 11:10:47;;;;;;;158.60;71.27;;;;;;;;;;724535;189;919492;-66
2021/12/09 11:13:12;;;;;;;165.40;69.83;;;;;;;;;;719797;189;920492;-67
2021/12/09 11:15:42;;;;;;;164.10;67.87;;;;;;;;;;731431;189;919004;-66
2021/12/09 11:18:14;;;;;;;151.07;64.77;;;;;;;;;;718519;190;920183;-67
2021/12/09 11:20:40;;;;;;;160.43;70.60;;;;;;;;;;729625;189;920480;-66
2021/12/09 11:23:12;;;;;;;159.20;72.47;;;;;;;;;;723593;190;919273;-66
2021/12/09 11:25:41;;;;;;;170.80;80.20;;;;;;;;;;727141;189;1167157;-66
2021/12/09 11:28:08;;;;;;;148.00;68.37;;;;;;;;;;733771;189;920296;-66
2021/12/09 11:30:34;;;;;;;165.93;74.50;;;;;;;;;;730195;189;920795;-67
2021/12/09 11:33:02;;;;;;;154.93;66.00;;;;;;;;;;717928;189;919553;-66
2021/12/09 11:35:28;;;;;;;166.85;78.35;;;;;;;;;;724122;189;920046;-66
2021/12/09 11:38:01;;;;;;;156.00;71.90;;;;;;;;;;722354;189;919449;-67
2021/12/09 11:40:27;;;;;;;150.10;66.60;;;;;;;;;;725439;189;1021540;-67
2021/12/09 11:42:52;;;;;;;183.63;84.43;;;;;;;;;;734311;189;918203;-67
2021/12/09 11:45:14;;;;;;;166.23;73.47;;;;;;;;;;737705;189;1020560;-66
2021/12/09 11:47:40;;;;;;;180.43;77.05;;;;;;;;;;713431;193;919320;-66
2021/12/09 11:50:06;;;;;;;188.27;79.20;;;;;;;;;;707173;196;968009;-68
2021/12/09 11:52:32;;;;;;;168.70;75.77;;;;;;;;;;731470;189;919033;-66
2021/12/09 11:55:02;;;;;;;139.33;64.20;;;;;;;;;;721832;189;919985;-66
2021/12/09 11:57:38;;;;;;;154.67;63.73;;;;;;;;;;727907;189;920984;-66
2021/12/09 12:07:56;;;;;;;167.80;66.70;;;;;;;;;;738653;189;919194;-67
2021/12/09 12:13:03;;;;;;;159.10;68.53;;;;;;;;;;727370;189;920078;-66
2021/12/09 12:15:48;;;;;;;164.05;66.60;;;;;;;;;;725672;189;919039;-67
2021/12/09 12:20:53;;;;;;;155.63;68.37;;;;;;;;;;720256;189;919391;-67
2021/12/09 12:23:24;;;;;;;157.27;71.10;;;;;;;;;;731375;189;918965;-66
2021/12/09 12:26:15;;;;;;;181.00;77.40;;;;;;;;;;726471;189;919452;-67
2021/12/09 12:28:30;;;;;;;168.27;73.23;;;;;;;;;;721326;189;920025;-66
2021/12/09 12:31:23;;;;;;;185.57;77.30;;;;;;;;;;719538;190;964870;-67
2021/12/09 12:33:48;;;;;;;177.12;71.28;;;;;;;;;;724976;189;919906;-67
2021/12/09 12:36:24;;;;;;;172.33;69.67;;;;;;;;;;722403;189;919071;-67
2021/12/09 12:38:37;;;;;;;162.10;68.87;;;;;;;;;;726902;190;919173;-67
2021/12/09 12:41:06;;;;;;;163.03;68.10;;;;;;;;;;728384;189;921708;-67
2021/12/09 12:43:32;;;;;;;151.67;69.50;;;;;;;;;;724050;189;920139;-67
2021/12/09 12:46:08;;;;;;;172.53;72.03;;;;;;;;;;725302;189;919806;-66
2021/12/09 12:48:48;;;;;;;171.13;72.43;;;;;;;;;;728467;189;916576;-67
2021/12/09 12:51:06;;;;;;;164.57;75.30;;;;;;;;;;737697;189;615269;-67
2021/12/09 12:53:34;;;;;;;197.30;81.73;;;;;;;;;;728260;189;915332;-67
2021/12/09 12:56:02;;;;;;;173.20;71.90;;;;;;;;;;726410;188;918413;-67
2021/12/09 12:58:28;;;;;;;175.67;70.73;;;;;;;;;;729152;189;918735;-67
2021/12/09 13:00:54;;;;;;;175.90;72.67;;;;;;;;;;725478;189;919527;-67
2021/12/09 13:03:25;;;;;;;168.77;72.47;;;;;;;;;;718843;189;920046;-67
2021/12/09 13:06:04;;;;;;;150.50;65.10;;;;;;;;;;721447;191;919107;-67
2021/12/09 13:08:41;;;;;;;149.40;60.47;;;;;;;;;;733561;189;920666;-67
2021/12/09 13:14:11;;;;;;;149.90;65.03;;;;;;;;;;720179;189;919039;-67
2021/12/09 13:16:19;;;;;;;163.40;67.83;;;;;;;;;;720318;189;919959;-66
2021/12/09 13:18:45;;;;;;;153.00;70.87;;;;;;;;;;721207;189;915563;-67
2021/12/09 13:21:14;;;;;;;174.33;71.67;;;;;;;;;;724069;189;919067;-66
2021/12/09 13:23:42;;;;;;;166.93;66.73;;;;;;;;;;727642;189;918956;-67
2021/12/09 13:26:09;;;;;;;167.03;67.40;;;;;;;;;;722865;189;919591;-67
2021/12/09 13:28:35;;;;;;;171.67;76.73;;;;;;;;;;719181;190;918727;-66
2021/12/09 13:31:10;;;;;;;175.47;73.67;;;;;;;;;;734791;189;626683;-67
2021/12/09 13:33:44;;;;;;;178.33;85.43;;;;;;;;;;728502;192;918578;-66
2021/12/09 13:36:16;;;;;;;182.10;76.10;;;;;;;;;;725400;189;919767;-67
2021/12/09 13:39:02;;;;;;;162.17;75.47;;;;;;;;;;727726;189;918949;-67
2021/12/09 13:46:13;;;;;;;189.37;82.50;;;;;;;;;;732112;189;1014939;-67
2021/12/09 13:48:44;;;;;;;191.53;80.60;;;;;;;;;;711187;193;919473;-67
2021/12/09 13:51:14;;;;;;;146.20;60.97;;;;;;;;;;719156;189;917260;-67
2021/12/09 13:55:56;;;;;;;172.60;73.10;;;;;;;;;;734829;189;616239;-67
2021/12/09 13:58:22;;;;;;;182.27;82.97;;;;;;;;;;720655;190;916434;-67
2021/12/09 14:00:47;;;;;;;178.53;84.03;;;;;;;;;;725095;190;916111;-67
2021/12/09 14:03:13;;;;;;;180.03;84.10;;;;;;;;;;735136;189;916981;-67
2021/12/09 14:05:48;;;;;;;172.30;82.47;;;;;;;;;;731313;189;918433;-68
2021/12/09 14:08:12;;;;;;;175.40;69.50;;;;;;;;;;725477;189;919245;-67
2021/12/09 14:10:41;;;;;;;154.50;70.83;;;;;;;;;;727834;189;919247;-66
2021/12/09 14:13:08;;;;;;;198.07;81.97;;;;;;;;;;727051;193;919006;-67
2021/12/09 14:15:36;;;;;;;180.17;80.60;;;;;;;;;;707281;193;919731;-67
2021/12/09 14:17:58;;;;;;;204.43;81.90;;;;;;;;;;709216;196;919356;-67